createdAt,value
2023-02-07T00:44:54.347Z,11.07
2023-02-07T00:47:35.728Z,11.13
2023-02-07T01:01:16.731Z,11.02
2023-02-07T01:03:57.001Z,14.48
2023-02-07T01:23:28.013Z,10.30
2023-02-07T01:29:36.229Z,14.35
2023-02-07T02:12:16.328Z,14.82
2023-02-07T02:41:59.858Z,18.50
2023-02-07T08:25:15.939Z,31.45
2023-02-07T08:41:10.628Z,30.55
2023-02-07T10:29:01.214Z,17.00
2023-02-07T15:55:17.872Z,17.25
2023-02-07T15:57:44.939Z,16.33
2023-02-07T16:00:18.986Z,19.90
2023-02-07T16:02:55.545Z,21.05
2023-02-07T16:05:24.286Z,19.60
2023-02-07T16:07:54.802Z,17.45
2023-02-07T16:13:33.606Z,15.35
2023-02-07T16:16:07.425Z,19.50
2023-02-07T16:21:42.709Z,17.42
2023-02-07T16:24:13.831Z,17.25
2023-02-07T16:26:41.994Z,14.32
2023-02-07T16:29:08.571Z,20.85
2023-02-07T16:31:35.585Z,20.02
2023-02-07T16:34:02.183Z,17.00
2023-02-07T16:36:28.604Z,21.13
2023-02-07T16:38:54.951Z,19.70
2023-02-07T16:41:21.321Z,23.23
2023-02-07T16:43:47.729Z,26.23
2023-02-07T16:46:14.218Z,21.77
2023-02-07T16:48:40.885Z,31.40
2023-02-07T16:51:07.297Z,23.38
2023-02-07T16:53:33.903Z,23.48
2023-02-07T16:56:00.368Z,23.45
2023-02-07T16:58:30.677Z,20.58
2023-02-07T17:00:57.229Z,22.67
2023-02-07T17:03:24.031Z,21.27
2023-02-07T17:06:01.923Z,23.92
2023-02-07T17:08:30.269Z,22.40
2023-02-07T17:11:01.465Z,18.73
2023-02-07T17:13:28.289Z,25.48
2023-02-07T17:15:55.068Z,24.90
2023-02-07T17:18:31.067Z,25.05
2023-02-07T17:21:00.309Z,24.83
2023-02-07T17:23:32.788Z,23.50
2023-02-07T17:26:40.119Z,24.60
2023-02-07T23:31:25.807Z,43.70
